Airfield :
LOGIN :

Register | Disclaimer

   EN    FR    IT 

 










Legend :    VFR   Marginal VFR   IFR   Intensive IFR   Very Intensive IFR
Visi :
Ceiling :
>= 8 km
>= 3000ft
5 to 8 km
1000 to 3000 ft
1500m to 5 km
500 to 1000 ft
800 to 1500m
200 to 500 ft
< 800m
< 200 ft
Symbols :   Thunderstorms  Fog  Heavy snow  Heavy precipitations  Wind > 20 kt
SIGMETs :     Misc.  Thunderstorms  Icing  Turbulence  Mountain Waves  Volcanic Ashes






- Airport Elevation : 458 ft


LFSI - St-Dizier

CURRENT METAR :
  • 080230Z AUTO 20010KT 9999 BKN017 OVC040 10/07 Q1015

EXPIRED METARs :
  • 080200Z AUTO 19009KT 9999 OVC042 09/07 Q1016
  • 080130Z AUTO 18007KT 9999 BKN040 OVC046 09/08 Q1016
  • 080100Z AUTO 18008KT 9999 FEW009 SCT028 OVC042 09/08 Q1016
  • 080030Z AUTO 19007KT 9999 BKN009 OVC023 09/08 Q1017
  • 080000Z AUTO 21008KT 170V230 9999 OVC012 09/07 Q1018

TAF TAF LFSI
Valid from the 08 at 03:00 until the 09 at 03:00 UTC


080200Z 0803/0903 21010KT 9999 OVC040
TEMPO 0803/0818 BKN005 BKN010
BECMG 0805/0807 21015G30KT
TEMPO 0814/0819 4000 SHRA
BECMG 0818/0820 BKN030



MET'MAP, your aeronautical weather chart ! - Copyright ORBIFLY December 2007 - Disclaimer

ORBIFLY MET'MAP TEAM :

Programming & Development : Alexandra Zaïnal
Concept & original design : Baudouin d'Aumeries
Assistance for programming : Marc-Olivier Méhu
Technical & hardware support : Manuel Goepfert

Contact : metmap@orbifly.com




SOURCES & CREDITS :

   NOAA